sensor_id;sensor_type;location;lat;lon;timestamp;P1;durP1;ratioP1;P2;durP2;ratioP2
56752;SDS011;42627;42.646;23.642;2022-09-09T00:04:12;7.78;;;4.65;;
56752;SDS011;42627;42.646;23.642;2022-09-09T00:06:23;7.38;;;4.63;;
56752;SDS011;42627;42.646;23.642;2022-09-09T00:08:34;6.68;;;4.28;;
56752;SDS011;42627;42.646;23.642;2022-09-09T00:10:39;7.43;;;4.53;;
56752;SDS011;42627;42.646;23.642;2022-09-09T00:22:23;8.57;;;4.57;;
56752;SDS011;42627;42.646;23.642;2022-09-09T00:24:29;7.03;;;4.70;;
56752;SDS011;42627;42.646;23.642;2022-09-09T00:26:38;7.38;;;4.70;;
56752;SDS011;42627;42.646;23.642;2022-09-09T00:31:07;9.98;;;4.78;;
56752;SDS011;42627;42.646;23.642;2022-09-09T00:33:12;6.82;;;4.35;;
56752;SDS011;42627;42.646;23.642;2022-09-09T00:35:25;8.02;;;4.80;;
56752;SDS011;42627;42.646;23.642;2022-09-09T00:37:28;7.05;;;4.90;;
56752;SDS011;42627;42.646;23.642;2022-09-09T00:39:36;7.68;;;4.43;;
56752;SDS011;42627;42.646;23.642;2022-09-09T00:51:26;7.63;;;4.85;;
56752;SDS011;42627;42.646;23.642;2022-09-09T00:53:30;7.60;;;4.68;;
56752;SDS011;42627;42.646;23.642;2022-09-09T00:57:35;9.60;;;5.03;;
56752;SDS011;42627;42.646;23.642;2022-09-09T00:59:41;6.28;;;4.32;;
56752;SDS011;42627;42.646;23.642;2022-09-09T01:03:57;6.65;;;3.97;;
56752;SDS011;42627;42.646;23.642;2022-09-09T01:08:01;6.50;;;4.22;;
56752;SDS011;42627;42.646;23.642;2022-09-09T01:10:05;7.18;;;4.70;;
56752;SDS011;42627;42.646;23.642;2022-09-09T01:17:31;7.40;;;3.95;;
56752;SDS011;42627;42.646;23.642;2022-09-09T01:21:50;7.63;;;4.57;;
56752;SDS011;42627;42.646;23.642;2022-09-09T01:28:22;7.88;;;4.88;;
56752;SDS011;42627;42.646;23.642;2022-09-09T01:30:23;7.45;;;4.55;;
56752;SDS011;42627;42.646;23.642;2022-09-09T01:34:53;8.27;;;4.90;;
56752;SDS011;42627;42.646;23.642;2022-09-09T01:38:58;7.20;;;4.43;;
56752;SDS011;42627;42.646;23.642;2022-09-09T01:40:59;7.97;;;4.60;;
56752;SDS011;42627;42.646;23.642;2022-09-09T01:48:02;7.20;;;4.72;;
56752;SDS011;42627;42.646;23.642;2022-09-09T01:50:03;6.18;;;3.95;;
56752;SDS011;42627;42.646;23.642;2022-09-09T01:52:04;6.45;;;4.85;;
56752;SDS011;42627;42.646;23.642;2022-09-09T01:54:06;5.85;;;4.50;;
56752;SDS011;42627;42.646;23.642;2022-09-09T01:56:56;7.40;;;4.97;;
56752;SDS011;42627;42.646;23.642;2022-09-09T02:00:30;7.00;;;4.53;;
56752;SDS011;42627;42.646;23.642;2022-09-09T02:07:28;6.55;;;4.40;;
56752;SDS011;42627;42.646;23.642;2022-09-09T02:09:31;6.22;;;3.90;;
56752;SDS011;42627;42.646;23.642;2022-09-09T02:19:19;6.10;;;4.28;;
56752;SDS011;42627;42.646;23.642;2022-09-09T02:21:26;5.93;;;3.95;;
56752;SDS011;42627;42.646;23.642;2022-09-09T02:23:28;7.45;;;4.30;;
56752;SDS011;42627;42.646;23.642;2022-09-09T02:25:32;8.55;;;4.57;;
56752;SDS011;42627;42.646;23.642;2022-09-09T02:27:34;6.53;;;4.18;;
56752;SDS011;42627;42.646;23.642;2022-09-09T02:29:44;8.52;;;4.45;;
56752;SDS011;42627;42.646;23.642;2022-09-09T02:32:04;7.22;;;4.45;;
56752;SDS011;42627;42.646;23.642;2022-09-09T02:34:09;5.97;;;4.38;;
56752;SDS011;42627;42.646;23.642;2022-09-09T02:36:11;5.40;;;4.00;;
56752;SDS011;42627;42.646;23.642;2022-09-09T02:38:15;5.97;;;4.18;;
56752;SDS011;42627;42.646;23.642;2022-09-09T02:40:17;8.50;;;4.78;;
56752;SDS011;42627;42.646;23.642;2022-09-09T02:52:02;7.15;;;3.95;;
56752;SDS011;42627;42.646;23.642;2022-09-09T02:56:19;6.30;;;4.20;;
56752;SDS011;42627;42.646;23.642;2022-09-09T02:58:21;6.55;;;4.40;;
56752;SDS011;42627;42.646;23.642;2022-09-09T03:00:41;7.88;;;4.32;;
56752;SDS011;42627;42.646;23.642;2022-09-09T03:02:42;7.57;;;4.13;;
56752;SDS011;42627;42.646;23.642;2022-09-09T03:04:45;9.18;;;4.43;;
56752;SDS011;42627;42.646;23.642;2022-09-09T03:06:50;6.07;;;4.03;;
56752;SDS011;42627;42.646;23.642;2022-09-09T03:08:51;8.02;;;4.63;;
56752;SDS011;42627;42.646;23.642;2022-09-09T03:16:05;7.38;;;4.10;;
56752;SDS011;42627;42.646;23.642;2022-09-09T03:18:06;7.07;;;3.85;;
56752;SDS011;42627;42.646;23.642;2022-09-09T03:20:07;8.82;;;4.32;;
56752;SDS011;42627;42.646;23.642;2022-09-09T03:22:09;6.68;;;4.22;;
56752;SDS011;42627;42.646;23.642;2022-09-09T03:24:11;7.40;;;4.40;;
56752;SDS011;42627;42.646;23.642;2022-09-09T03:26:12;5.97;;;3.90;;
56752;SDS011;42627;42.646;23.642;2022-09-09T03:28:15;7.35;;;4.13;;
56752;SDS011;42627;42.646;23.642;2022-09-09T03:30:22;7.07;;;4.60;;
56752;SDS011;42627;42.646;23.642;2022-09-09T03:32:23;6.55;;;4.15;;
56752;SDS011;42627;42.646;23.642;2022-09-09T03:34:26;6.47;;;4.22;;
56752;SDS011;42627;42.646;23.642;2022-09-09T03:36:27;6.22;;;4.50;;
56752;SDS011;42627;42.646;23.642;2022-09-09T03:38:28;6.07;;;3.90;;
56752;SDS011;42627;42.646;23.642;2022-09-09T03:40:38;8.05;;;4.75;;
56752;SDS011;42627;42.646;23.642;2022-09-09T03:45:22;6.28;;;4.60;;
56752;SDS011;42627;42.646;23.642;2022-09-09T03:47:25;8.48;;;4.28;;
56752;SDS011;42627;42.646;23.642;2022-09-09T03:49:26;5.95;;;4.50;;
56752;SDS011;42627;42.646;23.642;2022-09-09T03:51:28;6.40;;;4.32;;
56752;SDS011;42627;42.646;23.642;2022-09-09T03:53:30;7.18;;;4.65;;
56752;SDS011;42627;42.646;23.642;2022-09-09T03:55:31;6.72;;;4.57;;
56752;SDS011;42627;42.646;23.642;2022-09-09T03:57:34;6.65;;;4.05;;
56752;SDS011;42627;42.646;23.642;2022-09-09T04:01:55;6.53;;;4.35;;
56752;SDS011;42627;42.646;23.642;2022-09-09T04:03:58;8.00;;;4.60;;
56752;SDS011;42627;42.646;23.642;2022-09-09T04:06:02;5.97;;;3.90;;
56752;SDS011;42627;42.646;23.642;2022-09-09T04:08:03;6.57;;;3.63;;
56752;SDS011;42627;42.646;23.642;2022-09-09T04:10:14;6.95;;;4.30;;
56752;SDS011;42627;42.646;23.642;2022-09-09T04:15:09;6.65;;;4.28;;
56752;SDS011;42627;42.646;23.642;2022-09-09T04:17:10;5.65;;;3.45;;
56752;SDS011;42627;42.646;23.642;2022-09-09T04:19:12;5.75;;;3.60;;
56752;SDS011;42627;42.646;23.642;2022-09-09T04:21:13;8.07;;;3.85;;
56752;SDS011;42627;42.646;23.642;2022-09-09T04:23:16;7.15;;;4.00;;
56752;SDS011;42627;42.646;23.642;2022-09-09T04:25:20;6.13;;;3.67;;
56752;SDS011;42627;42.646;23.642;2022-09-09T04:27:21;5.38;;;3.42;;
56752;SDS011;42627;42.646;23.642;2022-09-09T04:29:22;6.07;;;3.83;;
56752;SDS011;42627;42.646;23.642;2022-09-09T04:31:23;6.82;;;4.38;;
56752;SDS011;42627;42.646;23.642;2022-09-09T04:33:25;6.53;;;3.97;;
56752;SDS011;42627;42.646;23.642;2022-09-09T04:35:26;5.85;;;3.75;;
56752;SDS011;42627;42.646;23.642;2022-09-09T04:37:27;5.13;;;3.58;;
56752;SDS011;42627;42.646;23.642;2022-09-09T04:39:28;6.07;;;3.60;;
56752;SDS011;42627;42.646;23.642;2022-09-09T04:44:11;6.35;;;3.85;;
56752;SDS011;42627;42.646;23.642;2022-09-09T04:46:12;6.68;;;4.03;;
56752;SDS011;42627;42.646;23.642;2022-09-09T04:48:13;6.68;;;3.75;;
56752;SDS011;42627;42.646;23.642;2022-09-09T04:50:14;6.32;;;3.63;;
56752;SDS011;42627;42.646;23.642;2022-09-09T04:52:16;6.43;;;4.07;;
56752;SDS011;42627;42.646;23.642;2022-09-09T04:54:18;8.02;;;4.45;;
56752;SDS011;42627;42.646;23.642;2022-09-09T04:56:19;6.32;;;4.25;;
56752;SDS011;42627;42.646;23.642;2022-09-09T04:58:20;5.20;;;3.53;;
56752;SDS011;42627;42.646;23.642;2022-09-09T05:00:22;5.60;;;3.60;;
56752;SDS011;42627;42.646;23.642;2022-09-09T05:02:23;5.82;;;4.13;;
56752;SDS011;42627;42.646;23.642;2022-09-09T05:04:24;5.43;;;3.38;;
56752;SDS011;42627;42.646;23.642;2022-09-09T05:06:25;6.00;;;3.80;;
56752;SDS011;42627;42.646;23.642;2022-09-09T05:08:26;5.80;;;3.40;;
56752;SDS011;42627;42.646;23.642;2022-09-09T05:15:31;6.25;;;3.45;;
56752;SDS011;42627;42.646;23.642;2022-09-09T05:17:32;5.18;;;3.05;;
56752;SDS011;42627;42.646;23.642;2022-09-09T05:19:33;5.03;;;3.17;;
56752;SDS011;42627;42.646;23.642;2022-09-09T05:21:34;5.90;;;3.58;;
56752;SDS011;42627;42.646;23.642;2022-09-09T05:23:36;6.30;;;3.17;;
56752;SDS011;42627;42.646;23.642;2022-09-09T05:25:37;5.13;;;3.50;;
56752;SDS011;42627;42.646;23.642;2022-09-09T05:27:38;4.20;;;3.00;;
56752;SDS011;42627;42.646;23.642;2022-09-09T05:29:45;5.80;;;3.42;;
56752;SDS011;42627;42.646;23.642;2022-09-09T05:31:47;8.27;;;3.08;;
56752;SDS011;42627;42.646;23.642;2022-09-09T05:33:48;5.55;;;3.13;;
56752;SDS011;42627;42.646;23.642;2022-09-09T05:35:59;5.88;;;3.35;;
56752;SDS011;42627;42.646;23.642;2022-09-09T05:38:01;5.57;;;2.97;;
56752;SDS011;42627;42.646;23.642;2022-09-09T05:45:18;4.28;;;2.90;;
56752;SDS011;42627;42.646;23.642;2022-09-09T05:47:19;5.15;;;3.13;;
56752;SDS011;42627;42.646;23.642;2022-09-09T05:49:20;5.80;;;2.72;;
56752;SDS011;42627;42.646;23.642;2022-09-09T05:51:25;5.15;;;3.05;;
56752;SDS011;42627;42.646;23.642;2022-09-09T05:53:26;6.53;;;3.10;;
56752;SDS011;42627;42.646;23.642;2022-09-09T05:55:27;5.35;;;2.95;;
56752;SDS011;42627;42.646;23.642;2022-09-09T05:57:28;7.22;;;3.65;;
56752;SDS011;42627;42.646;23.642;2022-09-09T05:59:47;4.70;;;3.05;;
56752;SDS011;42627;42.646;23.642;2022-09-09T06:01:49;8.63;;;3.28;;
56752;SDS011;42627;42.646;23.642;2022-09-09T06:03:50;5.00;;;2.92;;
56752;SDS011;42627;42.646;23.642;2022-09-09T06:05:58;4.72;;;3.08;;
56752;SDS011;42627;42.646;23.642;2022-09-09T06:07:59;4.95;;;2.40;;
56752;SDS011;42627;42.646;23.642;2022-09-09T06:15:02;4.20;;;2.55;;
56752;SDS011;42627;42.646;23.642;2022-09-09T06:17:03;5.45;;;2.30;;
56752;SDS011;42627;42.646;23.642;2022-09-09T06:19:05;4.68;;;2.42;;
56752;SDS011;42627;42.646;23.642;2022-09-09T06:21:07;4.38;;;2.33;;
56752;SDS011;42627;42.646;23.642;2022-09-09T06:23:09;4.95;;;2.40;;
56752;SDS011;42627;42.646;23.642;2022-09-09T06:25:12;4.32;;;2.45;;
56752;SDS011;42627;42.646;23.642;2022-09-09T06:27:13;4.15;;;2.40;;
56752;SDS011;42627;42.646;23.642;2022-09-09T06:29:14;3.90;;;2.42;;
56752;SDS011;42627;42.646;23.642;2022-09-09T06:31:16;3.03;;;2.20;;
56752;SDS011;42627;42.646;23.642;2022-09-09T06:33:21;5.40;;;2.10;;
56752;SDS011;42627;42.646;23.642;2022-09-09T06:35:22;4.70;;;2.53;;
56752;SDS011;42627;42.646;23.642;2022-09-09T06:37:23;4.65;;;2.33;;
56752;SDS011;42627;42.646;23.642;2022-09-09T06:39:36;4.57;;;2.22;;
56752;SDS011;42627;42.646;23.642;2022-09-09T06:41:43;5.38;;;2.03;;
56752;SDS011;42627;42.646;23.642;2022-09-09T06:43:50;3.83;;;2.20;;
56752;SDS011;42627;42.646;23.642;2022-09-09T06:47:58;7.00;;;2.35;;
56752;SDS011;42627;42.646;23.642;2022-09-09T06:49:59;3.78;;;2.17;;
56752;SDS011;42627;42.646;23.642;2022-09-09T06:52:00;4.53;;;2.55;;
56752;SDS011;42627;42.646;23.642;2022-09-09T06:54:02;4.30;;;2.17;;
56752;SDS011;42627;42.646;23.642;2022-09-09T07:00:21;4.40;;;2.05;;
56752;SDS011;42627;42.646;23.642;2022-09-09T07:02:22;4.88;;;2.33;;
56752;SDS011;42627;42.646;23.642;2022-09-09T07:04:23;4.00;;;2.20;;
56752;SDS011;42627;42.646;23.642;2022-09-09T07:06:26;3.88;;;2.42;;
56752;SDS011;42627;42.646;23.642;2022-09-09T07:08:27;6.47;;;2.47;;
56752;SDS011;42627;42.646;23.642;2022-09-09T07:10:28;5.07;;;2.22;;
56752;SDS011;42627;42.646;23.642;2022-09-09T07:12:29;23.58;;;10.38;;
56752;SDS011;42627;42.646;23.642;2022-09-09T07:19:38;4.03;;;1.83;;
56752;SDS011;42627;42.646;23.642;2022-09-09T07:21:39;8.90;;;4.32;;
56752;SDS011;42627;42.646;23.642;2022-09-09T07:23:41;12.23;;;6.20;;
56752;SDS011;42627;42.646;23.642;2022-09-09T07:25:45;11.80;;;6.20;;
56752;SDS011;42627;42.646;23.642;2022-09-09T07:30:07;6.25;;;2.58;;
56752;SDS011;42627;42.646;23.642;2022-09-09T07:32:08;4.13;;;2.15;;
56752;SDS011;42627;42.646;23.642;2022-09-09T07:34:09;4.25;;;2.15;;
56752;SDS011;42627;42.646;23.642;2022-09-09T07:36:15;3.72;;;2.45;;
56752;SDS011;42627;42.646;23.642;2022-09-09T07:38:16;4.22;;;2.30;;
56752;SDS011;42627;42.646;23.642;2022-09-09T07:40:24;4.60;;;2.35;;
56752;SDS011;42627;42.646;23.642;2022-09-09T07:42:25;4.30;;;2.40;;
56752;SDS011;42627;42.646;23.642;2022-09-09T07:44:26;3.55;;;2.20;;
56752;SDS011;42627;42.646;23.642;2022-09-09T07:46:27;4.00;;;2.20;;
56752;SDS011;42627;42.646;23.642;2022-09-09T07:48:28;4.82;;;2.70;;
56752;SDS011;42627;42.646;23.642;2022-09-09T07:50:30;3.88;;;2.58;;
56752;SDS011;42627;42.646;23.642;2022-09-09T07:52:33;3.97;;;2.47;;
56752;SDS011;42627;42.646;23.642;2022-09-09T07:59:51;5.20;;;2.30;;
56752;SDS011;42627;42.646;23.642;2022-09-09T08:01:52;3.78;;;2.10;;
56752;SDS011;42627;42.646;23.642;2022-09-09T08:03:55;4.18;;;1.80;;
56752;SDS011;42627;42.646;23.642;2022-09-09T08:06:02;3.92;;;2.15;;
56752;SDS011;42627;42.646;23.642;2022-09-09T08:08:03;3.65;;;2.15;;
56752;SDS011;42627;42.646;23.642;2022-09-09T08:10:04;5.50;;;2.70;;
56752;SDS011;42627;42.646;23.642;2022-09-09T08:12:06;5.18;;;2.63;;
56752;SDS011;42627;42.646;23.642;2022-09-09T08:14:13;4.00;;;2.17;;
56752;SDS011;42627;42.646;23.642;2022-09-09T08:16:15;4.38;;;2.13;;
56752;SDS011;42627;42.646;23.642;2022-09-09T08:18:16;3.13;;;1.92;;
56752;SDS011;42627;42.646;23.642;2022-09-09T08:20:17;3.65;;;2.15;;
56752;SDS011;42627;42.646;23.642;2022-09-09T08:22:18;3.60;;;1.90;;
56752;SDS011;42627;42.646;23.642;2022-09-09T08:29:10;3.72;;;2.17;;
56752;SDS011;42627;42.646;23.642;2022-09-09T08:31:15;4.60;;;2.30;;
56752;SDS011;42627;42.646;23.642;2022-09-09T08:33:17;4.70;;;2.03;;
56752;SDS011;42627;42.646;23.642;2022-09-09T08:35:18;3.20;;;1.92;;
56752;SDS011;42627;42.646;23.642;2022-09-09T08:37:20;3.47;;;2.10;;
56752;SDS011;42627;42.646;23.642;2022-09-09T08:39:21;4.60;;;2.40;;
56752;SDS011;42627;42.646;23.642;2022-09-09T08:47:51;3.80;;;2.60;;
56752;SDS011;42627;42.646;23.642;2022-09-09T08:50:16;4.70;;;2.20;;
56752;SDS011;42627;42.646;23.642;2022-09-09T08:59:31;4.35;;;2.28;;
56752;SDS011;42627;42.646;23.642;2022-09-09T09:06:15;5.70;;;2.53;;
56752;SDS011;42627;42.646;23.642;2022-09-09T09:10:34;4.30;;;2.35;;
56752;SDS011;42627;42.646;23.642;2022-09-09T09:12:45;3.58;;;2.38;;
56752;SDS011;42627;42.646;23.642;2022-09-09T09:14:47;3.65;;;2.03;;
56752;SDS011;42627;42.646;23.642;2022-09-09T09:18:50;3.45;;;2.35;;
56752;SDS011;42627;42.646;23.642;2022-09-09T09:30:17;4.18;;;2.53;;
56752;SDS011;42627;42.646;23.642;2022-09-09T09:32:19;5.40;;;2.42;;
56752;SDS011;42627;42.646;23.642;2022-09-09T09:34:22;5.10;;;2.63;;
56752;SDS011;42627;42.646;23.642;2022-09-09T09:36:46;4.82;;;2.67;;
56752;SDS011;42627;42.646;23.642;2022-09-09T09:40:56;4.25;;;2.38;;
56752;SDS011;42627;42.646;23.642;2022-09-09T09:45:15;4.47;;;2.35;;
56752;SDS011;42627;42.646;23.642;2022-09-09T09:47:19;4.05;;;2.67;;
56752;SDS011;42627;42.646;23.642;2022-09-09T09:49:20;4.43;;;2.45;;
56752;SDS011;42627;42.646;23.642;2022-09-09T09:51:21;4.25;;;2.60;;
56752;SDS011;42627;42.646;23.642;2022-09-09T09:58:13;5.00;;;2.90;;
56752;SDS011;42627;42.646;23.642;2022-09-09T10:00:22;6.03;;;3.40;;
56752;SDS011;42627;42.646;23.642;2022-09-09T10:02:24;4.90;;;3.60;;
56752;SDS011;42627;42.646;23.642;2022-09-09T10:04:26;4.70;;;2.47;;
56752;SDS011;42627;42.646;23.642;2022-09-09T10:08:33;5.70;;;2.70;;
56752;SDS011;42627;42.646;23.642;2022-09-09T10:12:48;4.05;;;2.70;;
56752;SDS011;42627;42.646;23.642;2022-09-09T10:17:08;4.40;;;2.63;;
56752;SDS011;42627;42.646;23.642;2022-09-09T10:19:18;4.45;;;2.60;;
56752;SDS011;42627;42.646;23.642;2022-09-09T10:27:00;6.20;;;2.50;;
56752;SDS011;42627;42.646;23.642;2022-09-09T10:29:15;6.15;;;2.10;;
56752;SDS011;42627;42.646;23.642;2022-09-09T10:36:27;5.38;;;2.30;;
56752;SDS011;42627;42.646;23.642;2022-09-09T10:42:19;3.63;;;2.03;;
56752;SDS011;42627;42.646;23.642;2022-09-09T10:55:27;5.32;;;2.42;;
56752;SDS011;42627;42.646;23.642;2022-09-09T10:57:36;5.85;;;2.95;;
56752;SDS011;42627;42.646;23.642;2022-09-09T10:59:44;4.95;;;3.70;;
56752;SDS011;42627;42.646;23.642;2022-09-09T11:01:48;9.40;;;2.25;;
56752;SDS011;42627;42.646;23.642;2022-09-09T11:03:53;4.88;;;2.15;;
56752;SDS011;42627;42.646;23.642;2022-09-09T11:05:57;4.70;;;2.17;;
56752;SDS011;42627;42.646;23.642;2022-09-09T11:08:04;3.38;;;1.95;;
56752;SDS011;42627;42.646;23.642;2022-09-09T11:12:28;6.00;;;3.00;;
56752;SDS011;42627;42.646;23.642;2022-09-09T11:14:32;5.50;;;3.05;;
56752;SDS011;42627;42.646;23.642;2022-09-09T11:18:37;4.65;;;2.38;;
56752;SDS011;42627;42.646;23.642;2022-09-09T11:20:47;4.07;;;2.58;;
56752;SDS011;42627;42.646;23.642;2022-09-09T11:28:24;4.40;;;2.78;;
56752;SDS011;42627;42.646;23.642;2022-09-09T11:34:56;4.85;;;2.83;;
56752;SDS011;42627;42.646;23.642;2022-09-09T11:39:23;5.43;;;2.85;;
56752;SDS011;42627;42.646;23.642;2022-09-09T11:41:40;3.75;;;2.25;;
56752;SDS011;42627;42.646;23.642;2022-09-09T11:43:45;5.80;;;3.55;;
56752;SDS011;42627;42.646;23.642;2022-09-09T11:47:54;6.90;;;3.08;;
56752;SDS011;42627;42.646;23.642;2022-09-09T11:57:35;4.47;;;2.92;;
56752;SDS011;42627;42.646;23.642;2022-09-09T11:59:36;5.57;;;2.95;;
56752;SDS011;42627;42.646;23.642;2022-09-09T12:01:38;4.53;;;2.97;;
56752;SDS011;42627;42.646;23.642;2022-09-09T12:03:50;5.15;;;3.10;;
56752;SDS011;42627;42.646;23.642;2022-09-09T12:05:55;5.55;;;3.20;;
56752;SDS011;42627;42.646;23.642;2022-09-09T12:07:57;5.78;;;3.33;;
56752;SDS011;42627;42.646;23.642;2022-09-09T12:14:21;4.47;;;3.13;;
56752;SDS011;42627;42.646;23.642;2022-09-09T12:16:29;5.30;;;2.90;;
56752;SDS011;42627;42.646;23.642;2022-09-09T12:18:35;6.80;;;4.07;;
56752;SDS011;42627;42.646;23.642;2022-09-09T12:28:19;5.82;;;3.75;;
56752;SDS011;42627;42.646;23.642;2022-09-09T12:30:21;6.20;;;3.47;;
56752;SDS011;42627;42.646;23.642;2022-09-09T12:32:26;4.40;;;2.83;;
56752;SDS011;42627;42.646;23.642;2022-09-09T12:36:30;6.00;;;3.22;;
56752;SDS011;42627;42.646;23.642;2022-09-09T12:38:37;4.55;;;2.90;;
56752;SDS011;42627;42.646;23.642;2022-09-09T12:40:39;5.70;;;3.10;;
56752;SDS011;42627;42.646;23.642;2022-09-09T12:42:42;4.82;;;2.97;;
56752;SDS011;42627;42.646;23.642;2022-09-09T12:44:53;5.60;;;3.25;;
56752;SDS011;42627;42.646;23.642;2022-09-09T12:46:58;5.13;;;3.38;;
56752;SDS011;42627;42.646;23.642;2022-09-09T12:49:01;8.95;;;3.38;;
56752;SDS011;42627;42.646;23.642;2022-09-09T12:51:02;5.97;;;3.00;;
56752;SDS011;42627;42.646;23.642;2022-09-09T12:53:24;6.40;;;3.70;;
56752;SDS011;42627;42.646;23.642;2022-09-09T12:55:31;4.57;;;3.00;;
56752;SDS011;42627;42.646;23.642;2022-09-09T12:57:42;6.00;;;3.38;;
56752;SDS011;42627;42.646;23.642;2022-09-09T12:59:44;5.30;;;2.90;;
56752;SDS011;42627;42.646;23.642;2022-09-09T13:01:45;19.13;;;4.50;;
56752;SDS011;42627;42.646;23.642;2022-09-09T13:03:59;9.70;;;3.65;;
56752;SDS011;42627;42.646;23.642;2022-09-09T13:06:13;7.15;;;3.20;;
56752;SDS011;42627;42.646;23.642;2022-09-09T13:08:17;6.50;;;3.13;;
56752;SDS011;42627;42.646;23.642;2022-09-09T13:10:23;4.90;;;3.08;;
56752;SDS011;42627;42.646;23.642;2022-09-09T13:12:27;4.85;;;2.90;;
56752;SDS011;42627;42.646;23.642;2022-09-09T13:14:29;6.28;;;3.28;;
56752;SDS011;42627;42.646;23.642;2022-09-09T13:16:33;6.30;;;2.92;;
56752;SDS011;42627;42.646;23.642;2022-09-09T13:18:35;4.75;;;2.83;;
56752;SDS011;42627;42.646;23.642;2022-09-09T13:20:39;4.47;;;2.83;;
56752;SDS011;42627;42.646;23.642;2022-09-09T13:22:47;5.38;;;2.95;;
56752;SDS011;42627;42.646;23.642;2022-09-09T13:24:57;4.70;;;2.97;;
56752;SDS011;42627;42.646;23.642;2022-09-09T13:26:59;5.07;;;2.70;;
56752;SDS011;42627;42.646;23.642;2022-09-09T13:29:17;6.20;;;3.25;;
56752;SDS011;42627;42.646;23.642;2022-09-09T13:31:19;5.32;;;2.88;;
56752;SDS011;42627;42.646;23.642;2022-09-09T13:33:22;5.05;;;3.20;;
56752;SDS011;42627;42.646;23.642;2022-09-09T13:35:23;5.78;;;3.45;;
56752;SDS011;42627;42.646;23.642;2022-09-09T13:37:35;6.47;;;2.95;;
56752;SDS011;42627;42.646;23.642;2022-09-09T13:41:57;5.25;;;2.78;;
56752;SDS011;42627;42.646;23.642;2022-09-09T13:43:59;7.80;;;3.38;;
56752;SDS011;42627;42.646;23.642;2022-09-09T13:46:02;5.95;;;3.00;;
56752;SDS011;42627;42.646;23.642;2022-09-09T13:48:09;4.43;;;2.95;;
56752;SDS011;42627;42.646;23.642;2022-09-09T13:55:11;5.97;;;3.38;;
56752;SDS011;42627;42.646;23.642;2022-09-09T13:57:16;5.65;;;3.50;;
56752;SDS011;42627;42.646;23.642;2022-09-09T13:59:19;7.20;;;3.75;;
56752;SDS011;42627;42.646;23.642;2022-09-09T14:01:22;7.45;;;3.88;;
56752;SDS011;42627;42.646;23.642;2022-09-09T14:03:23;7.68;;;3.85;;
56752;SDS011;42627;42.646;23.642;2022-09-09T14:05:24;9.65;;;3.47;;
56752;SDS011;42627;42.646;23.642;2022-09-09T14:07:25;5.85;;;3.78;;
56752;SDS011;42627;42.646;23.642;2022-09-09T14:11:37;5.70;;;3.45;;
56752;SDS011;42627;42.646;23.642;2022-09-09T14:13:38;7.30;;;3.20;;
56752;SDS011;42627;42.646;23.642;2022-09-09T14:15:39;4.38;;;3.15;;
56752;SDS011;42627;42.646;23.642;2022-09-09T14:17:40;4.43;;;2.75;;
56752;SDS011;42627;42.646;23.642;2022-09-09T14:24:45;3.80;;;2.10;;
56752;SDS011;42627;42.646;23.642;2022-09-09T14:26:47;5.32;;;2.53;;
56752;SDS011;42627;42.646;23.642;2022-09-09T14:28:48;5.35;;;2.85;;
56752;SDS011;42627;42.646;23.642;2022-09-09T14:30:50;5.32;;;2.20;;
56752;SDS011;42627;42.646;23.642;2022-09-09T14:32:51;5.20;;;2.75;;
56752;SDS011;42627;42.646;23.642;2022-09-09T14:34:52;4.35;;;2.63;;
56752;SDS011;42627;42.646;23.642;2022-09-09T14:36:53;4.10;;;2.60;;
56752;SDS011;42627;42.646;23.642;2022-09-09T14:41:26;5.07;;;2.58;;
56752;SDS011;42627;42.646;23.642;2022-09-09T14:43:26;4.00;;;2.33;;
56752;SDS011;42627;42.646;23.642;2022-09-09T14:45:27;5.35;;;2.65;;
56752;SDS011;42627;42.646;23.642;2022-09-09T14:47:28;5.50;;;2.70;;
56752;SDS011;42627;42.646;23.642;2022-09-09T14:54:37;4.15;;;2.67;;
56752;SDS011;42627;42.646;23.642;2022-09-09T14:56:38;5.22;;;2.50;;
56752;SDS011;42627;42.646;23.642;2022-09-09T14:58:40;4.15;;;2.45;;
56752;SDS011;42627;42.646;23.642;2022-09-09T15:00:41;3.95;;;2.47;;
56752;SDS011;42627;42.646;23.642;2022-09-09T15:02:42;5.75;;;2.70;;
56752;SDS011;42627;42.646;23.642;2022-09-09T15:04:43;4.20;;;2.78;;
56752;SDS011;42627;42.646;23.642;2022-09-09T15:06:44;5.85;;;2.67;;
56752;SDS011;42627;42.646;23.642;2022-09-09T15:08:54;3.58;;;2.42;;
56752;SDS011;42627;42.646;23.642;2022-09-09T15:11:03;7.35;;;3.05;;
56752;SDS011;42627;42.646;23.642;2022-09-09T15:13:07;6.13;;;2.83;;
56752;SDS011;42627;42.646;23.642;2022-09-09T15:15:09;5.25;;;2.90;;
56752;SDS011;42627;42.646;23.642;2022-09-09T15:17:10;5.90;;;2.88;;
56752;SDS011;42627;42.646;23.642;2022-09-09T15:24:23;4.30;;;2.30;;
56752;SDS011;42627;42.646;23.642;2022-09-09T15:26:26;6.75;;;2.25;;
56752;SDS011;42627;42.646;23.642;2022-09-09T15:28:27;5.15;;;2.53;;
56752;SDS011;42627;42.646;23.642;2022-09-09T15:30:29;4.85;;;2.50;;
56752;SDS011;42627;42.646;23.642;2022-09-09T15:32:30;3.88;;;2.30;;
56752;SDS011;42627;42.646;23.642;2022-09-09T15:34:34;4.90;;;2.85;;
56752;SDS011;42627;42.646;23.642;2022-09-09T15:36:36;5.25;;;2.70;;
56752;SDS011;42627;42.646;23.642;2022-09-09T15:38:50;4.45;;;2.47;;
56752;SDS011;42627;42.646;23.642;2022-09-09T15:40:54;4.68;;;2.50;;
56752;SDS011;42627;42.646;23.642;2022-09-09T15:42:55;6.25;;;2.65;;
56752;SDS011;42627;42.646;23.642;2022-09-09T15:44:56;5.80;;;2.70;;
56752;SDS011;42627;42.646;23.642;2022-09-09T15:46:58;4.45;;;2.45;;
56752;SDS011;42627;42.646;23.642;2022-09-09T15:54:20;5.28;;;2.80;;
56752;SDS011;42627;42.646;23.642;2022-09-09T15:56:27;5.75;;;2.75;;
56752;SDS011;42627;42.646;23.642;2022-09-09T15:58:30;3.45;;;2.17;;
56752;SDS011;42627;42.646;23.642;2022-09-09T16:00:33;4.78;;;2.70;;
56752;SDS011;42627;42.646;23.642;2022-09-09T16:02:34;4.00;;;2.50;;
56752;SDS011;42627;42.646;23.642;2022-09-09T16:04:38;6.13;;;2.80;;
56752;SDS011;42627;42.646;23.642;2022-09-09T16:06:39;4.20;;;2.40;;
56752;SDS011;42627;42.646;23.642;2022-09-09T16:08:41;6.55;;;2.38;;
56752;SDS011;42627;42.646;23.642;2022-09-09T16:10:43;4.90;;;2.85;;
56752;SDS011;42627;42.646;23.642;2022-09-09T16:12:45;3.45;;;2.25;;
56752;SDS011;42627;42.646;23.642;2022-09-09T16:14:46;4.00;;;2.47;;
56752;SDS011;42627;42.646;23.642;2022-09-09T16:16:47;6.15;;;3.00;;
56752;SDS011;42627;42.646;23.642;2022-09-09T16:18:51;8.50;;;3.53;;
56752;SDS011;42627;42.646;23.642;2022-09-09T16:23:01;4.75;;;2.83;;
56752;SDS011;42627;42.646;23.642;2022-09-09T16:25:04;5.60;;;3.03;;
56752;SDS011;42627;42.646;23.642;2022-09-09T16:27:06;3.60;;;2.33;;
56752;SDS011;42627;42.646;23.642;2022-09-09T16:29:07;7.90;;;2.85;;
56752;SDS011;42627;42.646;23.642;2022-09-09T16:31:12;5.00;;;3.03;;
56752;SDS011;42627;42.646;23.642;2022-09-09T16:38:23;4.75;;;2.78;;
56752;SDS011;42627;42.646;23.642;2022-09-09T16:40:24;8.73;;;2.63;;
56752;SDS011;42627;42.646;23.642;2022-09-09T16:42:30;3.88;;;2.60;;
56752;SDS011;42627;42.646;23.642;2022-09-09T16:44:31;7.85;;;2.92;;
56752;SDS011;42627;42.646;23.642;2022-09-09T16:46:33;9.95;;;3.05;;
56752;SDS011;42627;42.646;23.642;2022-09-09T16:48:39;3.63;;;2.60;;
56752;SDS011;42627;42.646;23.642;2022-09-09T16:50:40;6.65;;;3.13;;
56752;SDS011;42627;42.646;23.642;2022-09-09T16:52:47;4.78;;;2.83;;
56752;SDS011;42627;42.646;23.642;2022-09-09T16:54:48;4.07;;;2.40;;
56752;SDS011;42627;42.646;23.642;2022-09-09T16:56:49;4.85;;;2.85;;
56752;SDS011;42627;42.646;23.642;2022-09-09T16:58:51;6.45;;;3.25;;
56752;SDS011;42627;42.646;23.642;2022-09-09T17:00:57;4.88;;;2.30;;